Time;durP1;ratioP1;P1;durP2;ratioP2;P2;SDS_P1;SDS_P2;PMS_P1;PMS_P2;Temp;Humidity;BMP_temperature;BMP_pressure;BME280_temperature;BME280_humidity;BME280_pressure;Samples;Min_cycle;Max_cycle;Signal;HPM_P1;HPM_P2
2022/12/27 00:01:50;;;;;;;29.03;15.93;;;7.20;99.90;;;;;;4437121;28;657590;-71
2022/12/27 00:04:39;;;;;;;32.87;15.70;;;7.20;99.90;;;;;;4454046;28;658176;-72
2022/12/27 00:07:26;;;;;;;25.80;14.60;;;7.10;99.90;;;;;;4430127;28;658111;-72
2022/12/27 00:10:13;;;;;;;23.30;13.43;;;7.10;99.90;;;;;;4450570;28;658287;-73
2022/12/27 00:13:01;;;;;;;23.47;13.03;;;7.20;99.90;;;;;;4430136;28;658004;-71
2022/12/27 00:15:48;;;;;;;25.07;12.67;;;7.20;99.90;;;;;;4456127;28;658747;-72
2022/12/27 00:18:35;;;;;;;27.43;13.20;;;7.20;99.90;;;;;;4435024;28;657424;-71
2022/12/27 00:21:24;;;;;;;25.40;13.57;;;7.20;99.90;;;;;;4449120;28;658364;-72
2022/12/27 00:24:11;;;;;;;24.03;13.40;;;7.10;99.90;;;;;;4430061;28;658058;-73
2022/12/27 00:26:58;;;;;;;27.50;14.90;;;7.10;99.90;;;;;;4451731;28;658000;-73
2022/12/27 00:29:45;;;;;;;26.97;14.73;;;7.10;99.90;;;;;;4430119;28;657790;-72
2022/12/27 00:32:33;;;;;;;22.53;12.83;;;7.20;99.90;;;;;;4442396;28;658546;-73
2022/12/27 00:35:20;;;;;;;19.55;10.18;;;7.20;99.90;;;;;;4429739;28;658259;-71
2022/12/27 00:38:09;;;;;;;18.87;10.90;;;7.10;99.90;;;;;;4447985;28;658613;-72
2022/12/27 00:40:56;;;;;;;20.03;10.47;;;7.30;99.90;;;;;;4429793;28;657792;-72
2022/12/27 00:43:43;;;;;;;20.95;9.65;;;7.30;99.90;;;;;;4452078;28;658327;-72
2022/12/27 00:46:31;;;;;;;18.30;9.77;;;7.30;99.90;;;;;;4431682;28;657043;-72
2022/12/27 00:49:18;;;;;;;16.10;8.93;;;7.30;99.90;;;;;;4451195;28;657599;-72
2022/12/27 00:52:05;;;;;;;15.07;8.20;;;7.30;99.90;;;;;;4429748;28;656359;-71
2022/12/27 00:54:54;;;;;;;15.30;8.23;;;7.40;99.90;;;;;;4452483;28;657162;-72
2022/12/27 00:57:41;;;;;;;11.27;6.67;;;7.50;99.90;;;;;;4429002;28;656468;-72
2022/12/27 01:00:28;;;;;;;11.43;5.87;;;7.50;99.90;;;;;;4444322;28;657646;-72
2022/12/27 01:03:15;;;;;;;12.97;6.40;;;7.60;99.90;;;;;;4427133;28;657210;-71
2022/12/27 01:06:06;;;;;;;11.37;6.67;;;7.70;99.90;;;;;;4454435;28;657502;-72
2022/12/27 01:08:53;;;;;;;9.98;5.10;;;7.70;99.90;;;;;;4429167;28;657591;-72
2022/12/27 01:11:42;;;;;;;9.93;5.80;;;7.70;99.90;;;;;;4431386;28;656252;-72
2022/12/27 01:14:29;;;;;;;7.43;4.40;;;7.70;99.90;;;;;;4455436;28;655366;-72
2022/12/27 01:17:16;;;;;;;7.83;4.90;;;7.70;99.90;;;;;;4437365;28;656096;-72
2022/12/27 01:20:04;;;;;;;9.80;5.10;;;7.80;99.90;;;;;;4455792;28;656025;-73
2022/12/27 01:22:53;;;;;;;10.03;5.73;;;7.70;99.90;;;;;;4435693;28;655590;-70
2022/12/27 01:25:40;;;;;;;9.17;5.03;;;7.70;99.90;;;;;;4435141;28;656842;-71
2022/12/27 01:28:29;;;;;;;12.00;5.27;;;7.70;99.90;;;;;;4455775;28;655663;-72
2022/12/27 01:31:17;;;;;;;8.37;4.83;;;7.70;99.90;;;;;;4437564;28;656773;-72
2022/12/27 01:34:05;;;;;;;9.80;5.30;;;7.70;99.90;;;;;;4453592;28;656046;-71
2022/12/27 01:36:52;;;;;;;7.70;4.97;;;7.70;99.90;;;;;;4460217;28;655775;-73
2022/12/27 01:39:40;;;;;;;8.43;4.97;;;7.70;99.90;;;;;;4452908;28;655135;-70
2022/12/27 01:45:35;;;;;;;9.47;5.10;;;7.70;99.90;;;;;;4426018;28;655259;-71
2022/12/27 01:48:23;;;;;;;6.57;3.67;;;7.80;99.90;;;;;;4427388;28;655900;-72
2022/12/27 01:51:10;;;;;;;7.07;4.07;;;7.80;99.90;;;;;;4432709;28;656284;-71
2022/12/27 01:53:57;;;;;;;8.47;3.90;;;7.80;99.90;;;;;;4455056;28;656552;-73
2022/12/27 01:56:45;;;;;;;8.40;4.23;;;7.90;99.90;;;;;;4451857;28;655439;-71
2022/12/27 01:59:32;;;;;;;7.90;3.60;;;8.00;99.90;;;;;;4457020;28;655352;-73
2022/12/27 02:02:22;;;;;;;5.00;3.20;;;7.90;99.90;;;;;;4454842;28;655446;-72
2022/12/27 02:05:10;;;;;;;4.43;2.53;;;8.00;99.90;;;;;;4456750;28;655952;-72
2022/12/27 02:08:10;;;;;;;4.80;3.40;;;8.00;99.90;;;;;;4434105;28;656050;-72
2022/12/27 02:10:57;;;;;;;8.70;4.33;;;8.10;99.90;;;;;;4410620;28;655574;-72
2022/12/27 02:13:45;;;;;;;6.03;4.10;;;8.00;99.90;;;;;;4453829;28;655399;-73
2022/12/27 02:16:32;;;;;;;4.20;2.53;;;8.00;99.90;;;;;;4434169;28;656424;-73
2022/12/27 02:19:28;;;;;;;5.93;3.47;;;8.00;99.90;;;;;;4459157;28;654994;-72
2022/12/27 02:25:53;;;;;;;8.17;3.73;;;7.90;99.90;;;;;;4400330;28;655992;-73
2022/12/27 02:28:55;;;;;;;5.77;3.47;;;7.90;99.90;;;;;;4400483;28;655335;-71
2022/12/27 02:31:45;;;;;;;6.47;3.70;;;7.90;99.90;;;;;;4425020;28;655322;-72
2022/12/27 02:34:37;;;;;;;9.83;5.13;;;7.90;99.90;;;;;;4434201;28;656654;-73
2022/12/27 02:37:25;;;;;;;8.10;4.57;;;7.80;99.90;;;;;;4438725;28;655375;-73
2022/12/27 02:59:13;;;;;;;8.47;5.00;;;7.10;99.90;;;;;;4430767;28;656904;-72
2022/12/27 03:05:15;;;;;;;8.98;4.78;;;6.80;99.90;;;;;;4407544;28;656780;-70
2022/12/27 03:08:08;;;;;;;9.93;5.77;;;6.60;99.90;;;;;;4435293;28;656464;-73
2022/12/27 03:17:24;;;;;;;9.90;6.23;;;6.60;99.90;;;;;;4360054;28;656731;-72
2022/12/27 03:26:30;;;;;;;15.03;7.23;;;6.60;99.90;;;;;;4418229;28;656799;-71
2022/12/27 03:35:36;;;;;;;12.37;7.80;;;6.60;99.90;;;;;;4414770;28;656488;-72
2022/12/27 03:38:22;;;;;;;14.03;7.10;;;6.60;99.90;;;;;;4414522;28;657501;-73
2022/12/27 03:44:27;;;;;;;13.97;8.07;;;6.60;99.90;;;;;;4405978;28;657028;-72
2022/12/27 03:47:20;;;;;;;9.80;5.17;;;6.60;99.90;;;;;;4401246;28;656748;-73
2022/12/27 03:50:15;;;;;;;10.57;6.63;;;6.60;99.90;;;;;;4384529;28;656623;-73
2022/12/27 03:53:07;;;;;;;11.73;7.23;;;6.60;99.90;;;;;;4409951;28;656425;-72
2022/12/27 03:55:57;;;;;;;12.00;7.00;;;6.60;99.90;;;;;;4407154;28;656353;-72
2022/12/27 03:58:50;;;;;;;11.47;6.73;;;6.60;99.90;;;;;;4397833;28;657227;-70
2022/12/27 04:01:41;;;;;;;11.97;7.30;;;6.60;99.90;;;;;;4414594;28;656839;-71
2022/12/27 04:04:31;;;;;;;15.07;6.90;;;6.60;99.90;;;;;;4412289;28;657555;-72
2022/12/27 04:07:24;;;;;;;12.00;7.83;;;6.50;99.90;;;;;;4417239;28;656216;-71
2022/12/27 04:35:10;;;;;;;3.03;2.10;;;5.90;99.90;;;;;;4431674;28;655786;-72
2022/12/27 04:38:02;;;;;;;4.33;2.60;;;5.70;99.90;;;;;;4428737;28;656205;-72
2022/12/27 04:56:31;;;;;;;4.07;2.13;;;5.20;99.90;;;;;;4408288;28;656520;-72
2022/12/27 05:02:28;;;;;;;3.60;1.83;;;5.10;99.90;;;;;;4410144;28;655985;-71
2022/12/27 05:05:19;;;;;;;2.97;2.03;;;5.10;99.90;;;;;;4432749;28;655382;-72
2022/12/27 05:14:24;;;;;;;4.00;2.23;;;5.00;99.90;;;;;;4406747;28;656112;-72
2022/12/27 05:17:14;;;;;;;3.53;2.10;;;5.00;99.90;;;;;;4428871;28;655279;-73
2022/12/27 05:20:04;;;;;;;3.70;2.60;;;4.90;99.90;;;;;;4428039;28;656302;-73
2022/12/27 05:26:01;;;;;;;4.80;2.70;;;5.00;99.90;;;;;;4390372;28;655560;-70
2022/12/27 05:28:53;;;;;;;3.93;2.90;;;5.00;99.90;;;;;;4240639;28;655703;-71
2022/12/27 05:31:44;;;;;;;4.57;2.40;;;4.90;99.90;;;;;;4245738;28;655525;-70
2022/12/27 05:34:31;;;;;;;5.03;2.67;;;4.80;99.90;;;;;;4428149;28;655607;-72
2022/12/27 05:37:18;;;;;;;3.73;2.40;;;4.70;99.90;;;;;;4454404;28;656579;-71
2022/12/27 05:40:07;;;;;;;5.20;2.60;;;4.70;99.90;;;;;;4433568;28;656852;-72
2022/12/27 05:42:54;;;;;;;3.40;2.17;;;4.70;99.90;;;;;;4452114;28;655588;-72
2022/12/27 05:45:43;;;;;;;8.90;2.97;;;4.60;99.90;;;;;;4422513;28;655766;-73
2022/12/27 05:48:33;;;;;;;3.63;2.67;;;4.50;99.90;;;;;;4438117;28;655207;-71
2022/12/27 05:51:21;;;;;;;5.17;2.90;;;4.50;99.90;;;;;;4438586;28;655764;-70
2022/12/27 05:54:08;;;;;;;5.13;3.00;;;4.50;99.90;;;;;;4451040;28;655641;-72
2022/12/27 05:56:55;;;;;;;4.03;2.60;;;4.50;99.90;;;;;;4431015;28;655954;-70
2022/12/27 05:59:42;;;;;;;6.47;3.80;;;4.40;99.90;;;;;;4460790;28;656615;-72
2022/12/27 06:02:31;;;;;;;3.90;2.50;;;4.40;99.90;;;;;;4453323;28;655692;-71
2022/12/27 06:05:18;;;;;;;2.57;2.23;;;4.40;99.90;;;;;;4440584;28;655997;-71
2022/12/27 06:08:06;;;;;;;4.20;2.17;;;4.20;99.90;;;;;;4434642;28;655825;-71
2022/12/27 06:11:01;;;;;;;5.67;2.23;;;4.10;99.90;;;;;;4456976;27;656299;-72
2022/12/27 06:13:50;;;;;;;3.60;1.03;;;4.00;99.90;;;;;;4427972;28;655734;-72
2022/12/27 06:16:37;;;;;;;11.93;1.40;;;3.80;99.90;;;;;;4425981;28;656558;-72
2022/12/27 06:19:25;;;;;;;3.93;1.77;;;3.70;99.90;;;;;;4459327;28;656611;-72
2022/12/27 06:22:13;;;;;;;4.50;1.57;;;3.50;99.90;;;;;;4431211;28;656700;-71
2022/12/27 06:25:00;;;;;;;5.00;1.60;;;3.60;99.90;;;;;;4438043;28;655324;-70
2022/12/27 06:27:47;;;;;;;2.37;1.50;;;3.60;99.90;;;;;;4456774;28;656325;-74
2022/12/27 06:30:35;;;;;;;3.10;1.40;;;3.50;99.90;;;;;;4461345;28;655329;-73
2022/12/27 06:33:22;;;;;;;5.07;1.87;;;3.50;99.90;;;;;;4434948;28;656712;-74
2022/12/27 06:36:11;;;;;;;5.73;2.10;;;3.40;99.90;;;;;;4460725;28;655173;-73
2022/12/27 06:38:59;;;;;;;7.33;2.10;;;3.30;99.90;;;;;;4430048;28;656215;-74
2022/12/27 06:41:46;;;;;;;9.97;2.27;;;3.30;99.90;;;;;;4430036;28;655511;-74
2022/12/27 06:44:33;;;;;;;7.03;1.60;;;3.20;99.90;;;;;;4449383;28;655118;-74
2022/12/27 06:47:20;;;;;;;8.23;1.93;;;3.20;99.90;;;;;;4431018;28;655769;-71
2022/12/27 06:50:08;;;;;;;7.17;1.57;;;3.10;99.90;;;;;;4450232;28;655903;-73
2022/12/27 06:52:57;;;;;;;6.07;1.70;;;3.10;99.90;;;;;;4435883;28;656130;-73
2022/12/27 06:55:44;;;;;;;10.67;1.60;;;3.00;99.90;;;;;;4465352;28;655049;-73
2022/12/27 06:58:34;;;;;;;5.93;1.90;;;3.00;99.90;;;;;;4426740;28;656816;-73
2022/12/27 07:01:24;;;;;;;11.00;1.80;;;2.90;99.90;;;;;;4434782;28;655437;-74
2022/12/27 07:04:14;;;;;;;9.63;2.00;;;3.00;99.90;;;;;;4434825;28;656552;-71
2022/12/27 07:07:02;;;;;;;7.23;1.90;;;2.90;99.90;;;;;;4437403;28;655547;-73
2022/12/27 07:09:54;;;;;;;12.82;2.47;;;2.90;99.90;;;;;;4448674;28;655542;-74
2022/12/27 07:12:41;;;;;;;7.23;1.80;;;2.90;99.90;;;;;;4411505;28;657031;-73
2022/12/27 07:15:28;;;;;;;10.37;1.80;;;3.00;99.90;;;;;;4456350;28;656660;-73
2022/12/27 07:18:15;;;;;;;6.40;1.60;;;2.90;99.90;;;;;;4431672;28;657329;-72
2022/12/27 07:21:04;;;;;;;11.27;2.00;;;2.90;99.90;;;;;;4458755;28;655420;-74
2022/12/27 07:23:52;;;;;;;8.73;1.83;;;3.00;99.90;;;;;;4427072;28;657818;-74
2022/12/27 07:26:41;;;;;;;12.52;2.05;;;2.90;99.90;;;;;;4455187;28;655164;-74
2022/12/27 07:29:28;;;;;;;5.80;1.50;;;3.00;99.90;;;;;;4428211;28;656820;-74
2022/12/27 07:32:15;;;;;;;9.27;1.90;;;2.90;99.90;;;;;;4436992;28;655250;-71
2022/12/27 07:35:02;;;;;;;6.87;1.63;;;2.90;99.90;;;;;;4452085;28;656040;-73
2022/12/27 07:37:50;;;;;;;8.13;1.90;;;2.90;99.90;;;;;;4454066;28;655394;-71
2022/12/27 07:40:37;;;;;;;12.30;2.20;;;2.80;99.90;;;;;;4460020;28;655859;-73
2022/12/27 07:43:28;;;;;;;15.50;2.97;;;2.80;99.90;;;;;;4453347;28;656517;-70
2022/12/27 07:46:17;;;;;;;18.67;2.83;;;2.90;99.90;;;;;;4435062;28;657063;-73
2022/12/27 07:49:04;;;;;;;12.43;2.97;;;2.90;99.90;;;;;;4454341;28;656342;-74
2022/12/27 07:51:51;;;;;;;8.15;2.97;;;2.90;99.90;;;;;;4433924;28;656441;-73
2022/12/27 07:54:38;;;;;;;10.70;2.80;;;3.00;99.90;;;;;;4452813;28;655837;-73
2022/12/27 07:57:26;;;;;;;10.63;3.37;;;2.90;99.90;;;;;;4434254;28;656657;-73
2022/12/27 08:00:15;;;;;;;11.47;3.07;;;3.00;99.90;;;;;;4455161;28;657324;-73
2022/12/27 08:03:02;;;;;;;10.77;3.33;;;3.00;99.90;;;;;;4426825;28;657880;-74
2022/12/27 08:05:51;;;;;;;10.90;2.97;;;3.00;99.90;;;;;;4453332;28;656375;-74
2022/12/27 08:08:40;;;;;;;11.82;3.40;;;3.00;99.90;;;;;;4420885;28;656235;-74
2022/12/27 08:11:27;;;;;;;12.23;3.27;;;3.10;99.90;;;;;;4423735;28;657568;-74
2022/12/27 08:14:14;;;;;;;19.93;4.00;;;3.10;99.90;;;;;;4455099;28;656368;-72
2022/12/27 08:17:05;;;;;;;12.90;3.87;;;3.10;99.90;;;;;;4433282;28;657264;-73
2022/12/27 08:19:52;;;;;;;17.38;3.70;;;3.20;99.90;;;;;;4432785;28;657454;-74
2022/12/27 08:22:40;;;;;;;10.37;3.67;;;3.20;99.90;;;;;;4447189;28;656723;-70
2022/12/27 08:25:28;;;;;;;15.67;4.43;;;3.40;99.90;;;;;;4456465;28;658636;-74
2022/12/27 08:28:16;;;;;;;13.23;3.90;;;3.50;99.90;;;;;;4427173;28;656798;-72
2022/12/27 08:31:05;;;;;;;9.10;3.47;;;3.70;99.90;;;;;;4443643;28;657082;-74
2022/12/27 08:33:55;;;;;;;10.23;3.47;;;3.60;99.90;;;;;;4421221;28;655806;-71
2022/12/27 08:36:42;;;;;;;11.37;3.93;;;3.40;99.90;;;;;;4420608;28;658265;-74
2022/12/27 08:39:30;;;;;;;13.37;4.07;;;3.20;99.90;;;;;;4443945;28;656386;-74
2022/12/27 08:42:17;;;;;;;10.57;3.93;;;3.30;99.90;;;;;;4423677;28;657053;-74
2022/12/27 08:45:05;;;;;;;10.17;3.60;;;3.20;99.90;;;;;;4445932;28;656006;-73
2022/12/27 08:47:52;;;;;;;6.93;2.83;;;3.20;99.90;;;;;;4424647;28;657246;-73
2022/12/27 08:50:41;;;;;;;11.33;2.47;;;3.20;99.90;;;;;;4445012;28;655485;-74
2022/12/27 08:53:28;;;;;;;8.13;2.90;;;3.00;99.90;;;;;;4430638;28;657182;-74
2022/12/27 08:56:15;;;;;;;7.95;3.13;;;3.00;99.90;;;;;;4439585;28;655463;-72
2022/12/27 08:59:02;;;;;;;9.37;3.20;;;2.90;99.90;;;;;;4451323;28;655447;-72
2022/12/27 09:01:50;;;;;;;12.00;3.23;;;3.00;99.90;;;;;;4452768;28;655551;-71
2022/12/27 09:04:37;;;;;;;12.60;3.63;;;3.10;99.90;;;;;;4459556;28;656204;-73
2022/12/27 09:07:27;;;;;;;12.50;3.80;;;3.00;99.90;;;;;;4450792;28;656778;-72
2022/12/27 09:10:14;;;;;;;13.60;3.10;;;3.00;99.90;;;;;;4455262;28;656079;-73
2022/12/27 09:13:01;;;;;;;15.90;4.53;;;3.10;99.90;;;;;;4432503;28;656167;-74
2022/12/27 09:15:48;;;;;;;9.67;3.00;;;3.00;99.90;;;;;;4447871;28;657788;-73
2022/12/27 09:18:36;;;;;;;14.50;3.50;;;3.10;99.90;;;;;;4425841;28;655714;-73
2022/12/27 09:21:24;;;;;;;11.73;3.47;;;3.20;99.90;;;;;;4454067;28;657037;-73
2022/12/27 09:24:12;;;;;;;16.43;3.10;;;3.20;99.90;;;;;;4425918;28;656874;-70
2022/12/27 09:27:00;;;;;;;9.80;3.33;;;3.10;99.90;;;;;;4446069;28;656602;-72
2022/12/27 09:29:47;;;;;;;18.87;3.40;;;3.20;99.90;;;;;;4456586;28;655901;-73
2022/12/27 09:32:35;;;;;;;8.23;2.77;;;3.30;99.90;;;;;;4456824;28;656650;-74
2022/12/27 09:35:22;;;;;;;13.57;3.67;;;3.30;99.90;;;;;;4434023;28;656534;-73
2022/12/27 09:38:09;;;;;;;9.40;3.13;;;3.40;99.90;;;;;;4457071;28;656895;-73
2022/12/27 09:40:59;;;;;;;7.40;2.93;;;3.40;99.90;;;;;;4437584;28;655500;-73
2022/12/27 09:43:53;;;;;;;8.97;2.80;;;3.50;99.90;;;;;;4433727;28;656059;-73
2022/12/27 09:46:44;;;;;;;9.60;2.93;;;3.60;99.90;;;;;;4415271;28;655872;-73
2022/12/27 09:49:33;;;;;;;10.90;3.40;;;3.50;99.90;;;;;;4437571;28;655703;-73
2022/12/27 09:52:22;;;;;;;14.33;3.40;;;3.40;99.90;;;;;;4449950;28;656599;-71
2022/12/27 09:55:12;;;;;;;8.87;2.67;;;3.50;99.90;;;;;;4455906;28;656395;-73
2022/12/27 09:58:06;;;;;;;9.95;3.10;;;3.40;99.90;;;;;;4428589;28;655437;-70
2022/12/27 10:00:53;;;;;;;19.17;3.33;;;3.60;99.90;;;;;;4431880;28;656210;-73
2022/12/27 10:03:40;;;;;;;4.77;2.13;;;3.70;99.90;;;;;;4437252;28;656644;-70
2022/12/27 10:06:43;;;;;;;11.70;2.87;;;3.70;99.90;;;;;;4456841;28;655735;-73
2022/12/27 10:09:46;;;;;;;10.50;2.67;;;3.60;99.90;;;;;;4412587;28;656658;-71
2022/12/27 10:12:51;;;;;;;7.40;2.47;;;3.60;99.90;;;;;;4430909;28;656521;-74
2022/12/27 10:15:47;;;;;;;10.63;2.87;;;3.50;99.90;;;;;;4435151;28;655369;-73
2022/12/27 10:18:41;;;;;;;13.37;2.97;;;3.50;99.90;;;;;;4428532;28;656494;-73
2022/12/27 10:21:28;;;;;;;10.50;2.47;;;3.50;99.90;;;;;;4430835;28;656611;-74
2022/12/27 10:24:19;;;;;;;9.73;2.60;;;3.50;99.90;;;;;;4434737;28;657133;-71
2022/12/27 10:27:12;;;;;;;9.07;2.33;;;3.50;99.90;;;;;;4435240;28;655047;-73
2022/12/27 10:30:00;;;;;;;8.87;2.23;;;3.60;99.90;;;;;;4434007;28;655612;-72
2022/12/27 10:32:48;;;;;;;12.43;2.73;;;3.90;99.90;;;;;;4427269;28;656521;-73
2022/12/27 10:35:35;;;;;;;9.40;2.87;;;3.90;99.90;;;;;;4436238;28;656473;-72
2022/12/27 10:38:23;;;;;;;13.67;2.83;;;4.10;99.90;;;;;;4457549;28;655681;-73
2022/12/27 10:41:33;;;;;;;12.52;2.38;;;4.30;99.90;;;;;;4436786;28;657124;-69
2022/12/27 10:44:22;;;;;;;10.83;2.20;;;4.50;99.90;;;;;;4412274;28;656542;-71
2022/12/27 10:47:10;;;;;;;8.90;2.27;;;4.30;99.90;;;;;;4453578;28;656544;-71
2022/12/27 10:50:05;;;;;;;3.77;1.53;;;4.30;99.90;;;;;;4460166;28;655907;-72
2022/12/27 10:52:52;;;;;;;7.00;1.97;;;4.20;99.90;;;;;;4408267;28;655427;-73
2022/12/27 10:55:39;;;;;;;5.63;1.83;;;4.20;99.90;;;;;;4453793;28;655757;-72
2022/12/27 10:58:35;;;;;;;8.43;2.10;;;4.00;99.90;;;;;;4436652;28;655998;-73
2022/12/27 11:01:24;;;;;;;12.07;2.20;;;3.90;99.90;;;;;;4408820;28;655707;-72
2022/12/27 11:04:15;;;;;;;2.60;1.00;;;3.80;99.90;;;;;;4436937;28;656738;-72
2022/12/27 11:07:15;;;;;;;9.03;2.00;;;3.80;99.90;;;;;;4432088;28;656431;-72
2022/12/27 11:10:08;;;;;;;5.00;1.80;;;3.80;99.90;;;;;;4403658;28;655960;-72
2022/12/27 11:13:00;;;;;;;6.60;1.67;;;3.70;99.90;;;;;;4414621;28;656439;-70
2022/12/27 11:15:55;;;;;;;5.30;1.70;;;3.80;99.90;;;;;;4434326;28;656406;-72
2022/12/27 11:18:46;;;;;;;5.37;2.07;;;3.90;99.90;;;;;;4431296;28;656172;-73
2022/12/27 11:21:33;;;;;;;8.17;1.90;;;4.10;99.90;;;;;;4432997;28;655847;-74
2022/12/27 11:24:22;;;;;;;10.63;1.90;;;4.30;99.90;;;;;;4436505;28;655561;-70
2022/12/27 11:27:19;;;;;;;4.03;1.40;;;4.20;99.90;;;;;;4278593;28;656465;-69
2022/12/27 11:30:19;;;;;;;9.60;2.17;;;4.20;99.90;;;;;;4245912;28;655705;-70
2022/12/27 11:33:14;;;;;;;7.97;2.13;;;4.50;99.90;;;;;;4375278;28;655269;-72
2022/12/27 11:36:01;;;;;;;6.53;2.28;;;5.50;99.90;;;;;;4403991;28;655920;-73
2022/12/27 11:38:49;;;;;;;6.53;2.17;;;6.10;99.90;;;;;;4455788;28;656453;-73
2022/12/27 11:41:43;;;;;;;12.33;2.23;;;6.40;99.90;;;;;;4438921;28;656253;-72
2022/12/27 11:44:32;;;;;;;12.70;2.13;;;6.20;99.00;;;;;;4420848;28;656418;-69
2022/12/27 11:47:26;;;;;;;7.77;1.87;;;6.50;98.80;;;;;;4453342;28;656803;-74
2022/12/27 11:50:32;;;;;;;8.43;1.73;;;6.70;97.10;;;;;;4430164;28;655388;-74
2022/12/27 11:53:27;;;;;;;13.30;2.40;;;6.80;95.10;;;;;;4432169;28;655378;-75
2022/12/27 11:56:19;;;;;;;7.83;1.93;;;6.90;93.50;;;;;;4430213;28;656753;-74
2022/12/27 11:59:32;;;;;;;7.83;2.03;;;7.30;91.80;;;;;;4428698;28;655468;-73
2022/12/27 12:02:37;;;;;;;5.40;1.60;;;6.40;92.60;;;;;;4425860;28;655751;-72
2022/12/27 12:05:40;;;;;;;7.03;2.57;;;5.90;93.90;;;;;;4425755;28;656084;-72
2022/12/27 12:08:43;;;;;;;7.37;2.07;;;5.60;94.90;;;;;;4431431;28;655634;-74
2022/12/27 12:11:37;;;;;;;6.80;1.83;;;5.10;96.70;;;;;;4412919;28;655963;-71
2022/12/27 12:14:51;;;;;;;7.43;1.60;;;4.80;97.60;;;;;;4430281;28;655750;-72
2022/12/27 12:17:49;;;;;;;7.53;1.80;;;4.80;99.40;;;;;;4431568;28;655985;-72
2022/12/27 12:21:18;;;;;;;5.70;1.80;;;4.40;99.90;;;;;;4392574;28;656172;-72
2022/12/27 12:24:47;;;;;;;7.63;1.95;;;4.50;99.90;;;;;;4387143;28;655794;-73
2022/12/27 12:27:42;;;;;;;6.43;2.17;;;4.50;99.90;;;;;;4342708;28;655650;-72
2022/12/27 12:30:49;;;;;;;9.20;2.07;;;4.60;99.90;;;;;;4411382;28;655635;-72
2022/12/27 12:33:53;;;;;;;8.67;2.53;;;4.60;99.90;;;;;;4395794;28;656281;-73
2022/12/27 12:36:52;;;;;;;9.93;2.37;;;4.50;99.90;;;;;;4389713;28;655780;-72
2022/12/27 12:39:52;;;;;;;7.50;2.77;;;4.50;99.90;;;;;;4418451;28;655642;-73
2022/12/27 12:42:43;;;;;;;4.93;2.20;;;4.60;99.90;;;;;;4410044;28;655739;-72
2022/12/27 12:45:43;;;;;;;7.70;2.20;;;4.50;99.90;;;;;;4396231;28;655853;-71
2022/12/27 12:49:05;;;;;;;7.63;2.53;;;4.50;99.90;;;;;;4414582;28;655615;-72
2022/12/27 12:52:17;;;;;;;6.00;2.43;;;4.60;99.90;;;;;;4391207;28;655701;-73
2022/12/27 12:55:25;;;;;;;8.70;2.90;;;4.70;99.90;;;;;;4415116;28;655575;-73
2022/12/27 12:58:21;;;;;;;8.87;1.87;;;4.80;99.90;;;;;;4389020;28;655549;-70
2022/12/27 13:01:23;;;;;;;9.33;2.90;;;4.60;99.90;;;;;;4412499;28;656011;-72
2022/12/27 13:04:42;;;;;;;4.67;2.10;;;4.90;99.90;;;;;;4391961;28;655657;-73
2022/12/27 13:07:40;;;;;;;9.05;1.90;;;5.80;98.90;;;;;;4416008;28;655479;-73
2022/12/27 13:10:45;;;;;;;9.30;3.53;;;6.60;93.60;;;;;;4395102;28;656217;-73
2022/12/27 13:13:39;;;;;;;12.13;2.50;;;7.10;91.70;;;;;;4418244;28;655152;-73
2022/12/27 13:16:31;;;;;;;5.33;1.83;;;6.90;93.00;;;;;;4391928;28;656595;-74
2022/12/27 13:19:41;;;;;;;7.37;1.80;;;7.40;87.60;;;;;;4435327;28;656034;-73
2022/12/27 13:22:43;;;;;;;7.90;2.10;;;7.00;87.60;;;;;;4433891;28;655587;-73
2022/12/27 13:25:37;;;;;;;8.37;2.30;;;7.20;87.00;;;;;;4419038;28;656616;-70
2022/12/27 13:28:31;;;;;;;6.10;1.80;;;6.80;86.00;;;;;;4435459;28;655158;-71
2022/12/27 13:31:26;;;;;;;5.60;1.77;;;6.20;88.70;;;;;;4432716;28;655799;-72
2022/12/27 13:34:22;;;;;;;7.82;1.65;;;5.90;91.00;;;;;;4434676;28;655786;-71
2022/12/27 13:37:15;;;;;;;4.03;1.48;;;6.50;88.90;;;;;;4430297;28;655372;-73
2022/12/27 13:40:15;;;;;;;10.40;2.23;;;6.10;90.20;;;;;;4431485;28;655770;-72
2022/12/27 13:43:28;;;;;;;8.50;1.93;;;5.90;90.90;;;;;;4410571;28;656942;-72
2022/12/27 13:46:44;;;;;;;3.83;1.83;;;5.50;91.30;;;;;;4394666;28;655488;-69
2022/12/27 13:50:13;;;;;;;6.63;2.33;;;5.10;94.00;;;;;;4405881;28;655704;-71
2022/12/27 13:53:18;;;;;;;5.73;1.93;;;4.70;97.10;;;;;;4433553;28;655617;-72
2022/12/27 13:56:09;;;;;;;5.23;1.80;;;4.40;97.80;;;;;;4415773;28;656069;-68
2022/12/27 13:59:23;;;;;;;6.03;2.03;;;4.30;98.50;;;;;;4438506;28;655197;-72
2022/12/27 14:03:05;;;;;;;5.23;2.10;;;4.30;99.90;;;;;;4409780;28;655354;-71
2022/12/27 14:06:05;;;;;;;7.37;1.87;;;4.20;99.90;;;;;;4320615;28;655719;-71
2022/12/27 14:09:27;;;;;;;9.98;2.35;;;4.10;99.90;;;;;;4347774;28;655805;-72
2022/12/27 14:12:48;;;;;;;5.50;1.70;;;4.20;99.90;;;;;;4445215;28;655660;-69
2022/12/27 14:16:04;;;;;;;8.00;1.77;;;4.10;99.90;;;;;;4417481;28;655700;-69
2022/12/27 14:19:09;;;;;;;8.10;1.70;;;4.10;99.90;;;;;;4382168;28;655866;-73
2022/12/27 14:22:18;;;;;;;3.00;1.63;;;4.10;99.90;;;;;;4437386;28;655819;-72
2022/12/27 14:25:34;;;;;;;3.63;1.50;;;4.10;99.90;;;;;;4418050;28;656028;-69
2022/12/27 14:28:47;;;;;;;4.00;1.60;;;4.10;99.90;;;;;;4407940;28;656406;-71
2022/12/27 14:31:43;;;;;;;5.23;1.77;;;4.00;99.90;;;;;;4432681;28;655462;-72
2022/12/27 14:35:18;;;;;;;3.63;1.67;;;4.00;99.90;;;;;;4413813;28;656061;-71
2022/12/27 14:38:27;;;;;;;6.30;1.97;;;4.00;99.90;;;;;;4408280;28;655762;-70
2022/12/27 14:41:42;;;;;;;8.27;2.00;;;3.90;99.90;;;;;;4451717;28;655187;-68
2022/12/27 14:45:12;;;;;;;5.90;2.30;;;3.90;99.90;;;;;;4433608;28;655232;-70
2022/12/27 14:48:24;;;;;;;7.43;2.47;;;3.90;99.90;;;;;;4404055;28;655037;-71
2022/12/27 14:51:31;;;;;;;7.00;2.00;;;3.90;99.90;;;;;;4431883;28;655431;-69
2022/12/27 14:54:39;;;;;;;15.03;3.07;;;3.80;99.90;;;;;;4431876;28;656409;-71
2022/12/27 14:57:32;;;;;;;7.53;2.43;;;3.80;99.90;;;;;;4436156;28;656984;-70
2022/12/27 15:00:20;;;;;;;8.10;2.37;;;3.70;99.90;;;;;;4430946;28;655600;-70
2022/12/27 15:03:16;;;;;;;10.90;3.00;;;3.70;99.90;;;;;;4432529;28;656230;-71
2022/12/27 15:06:05;;;;;;;10.07;3.40;;;3.70;99.90;;;;;;4430978;28;656461;-71
2022/12/27 15:08:57;;;;;;;10.00;3.50;;;3.70;99.90;;;;;;4428998;28;656825;-71
2022/12/27 15:11:54;;;;;;;11.70;3.73;;;3.60;99.90;;;;;;4429494;28;656489;-71
2022/12/27 15:14:55;;;;;;;11.47;3.90;;;3.60;99.90;;;;;;4436009;28;657212;-71
2022/12/27 15:17:53;;;;;;;12.67;4.10;;;3.60;99.90;;;;;;4408497;28;656961;-70
2022/12/27 15:21:04;;;;;;;10.65;4.10;;;3.60;99.90;;;;;;4405481;28;656595;-70
2022/12/27 15:23:53;;;;;;;9.67;3.90;;;3.50;99.90;;;;;;4418935;28;656984;-70
2022/12/27 15:26:43;;;;;;;10.70;3.58;;;3.50;99.90;;;;;;4418252;28;655225;-69
2022/12/27 15:29:35;;;;;;;10.13;4.00;;;3.50;99.90;;;;;;4430449;28;656838;-68
2022/12/27 15:32:28;;;;;;;15.77;4.53;;;3.50;99.90;;;;;;4410975;28;656767;-70
2022/12/27 15:35:43;;;;;;;16.67;5.10;;;3.40;99.90;;;;;;4387433;28;656640;-71
2022/12/27 15:38:45;;;;;;;11.20;4.32;;;3.40;99.90;;;;;;4393305;28;656889;-69
2022/12/27 15:41:50;;;;;;;13.63;5.07;;;3.20;99.90;;;;;;4389382;28;656696;-71
2022/12/27 15:44:43;;;;;;;14.83;5.30;;;3.10;99.90;;;;;;4383767;28;656502;-69
2022/12/27 15:47:55;;;;;;;10.77;4.23;;;3.00;99.90;;;;;;4375686;28;656837;-71
2022/12/27 15:50:53;;;;;;;13.73;4.70;;;2.90;99.90;;;;;;4383360;28;656663;-71
2022/12/27 15:54:04;;;;;;;14.63;5.27;;;2.90;99.90;;;;;;4401978;28;656437;-69
2022/12/27 15:57:13;;;;;;;11.63;4.60;;;2.80;99.90;;;;;;4391990;28;656858;-71
2022/12/27 16:00:15;;;;;;;14.07;4.77;;;2.80;99.90;;;;;;4392387;28;656566;-71
2022/12/27 16:03:05;;;;;;;14.60;4.50;;;2.70;99.90;;;;;;4392165;28;656468;-71
2022/12/27 16:05:54;;;;;;;11.57;4.53;;;2.60;99.90;;;;;;4409901;28;656901;-71
2022/12/27 16:08:41;;;;;;;10.67;3.77;;;2.50;99.90;;;;;;4407453;28;656539;-70
2022/12/27 16:11:58;;;;;;;11.40;4.70;;;2.50;99.90;;;;;;4427815;28;656779;-71
2022/12/27 16:14:46;;;;;;;13.17;4.77;;;2.50;99.90;;;;;;4388617;28;656991;-69
2022/12/27 16:17:35;;;;;;;12.77;5.70;;;2.50;99.90;;;;;;4429091;28;657299;-71
2022/12/27 16:20:24;;;;;;;15.55;5.68;;;2.40;99.90;;;;;;4404925;28;657172;-71
2022/12/27 16:23:11;;;;;;;12.83;5.77;;;2.30;99.90;;;;;;4403988;28;656970;-71
2022/12/27 16:26:00;;;;;;;19.93;7.33;;;2.20;99.90;;;;;;4428302;28;657115;-70
2022/12/27 16:28:56;;;;;;;15.63;6.73;;;2.20;99.90;;;;;;4404828;28;657446;-71
2022/12/27 16:31:45;;;;;;;11.30;4.88;;;2.20;99.90;;;;;;4409155;28;657108;-71
2022/12/27 16:34:33;;;;;;;14.13;5.23;;;2.20;99.90;;;;;;4413653;28;657219;-71
2022/12/27 16:37:23;;;;;;;10.27;4.17;;;2.20;99.90;;;;;;4427132;28;656565;-69
2022/12/27 16:40:29;;;;;;;14.13;5.13;;;2.20;99.90;;;;;;4416184;28;657262;-70
2022/12/27 16:43:38;;;;;;;14.00;5.77;;;2.20;99.90;;;;;;4412376;28;656573;-71